Time;durP1;ratioP1;P1;durP2;ratioP2;P2;SDS_P1;SDS_P2;PMS_P1;PMS_P2;Temp;Humidity;BMP_temperature;BMP_pressure;BME280_temperature;BME280_humidity;BME280_pressure;Samples;Min_cycle;Max_cycle;Signal;HPM_P1;HPM_P2
2022/12/10 00:00:55;;;;;;;27.60;15.50;;;-1.10;99.90;;;;;;4863838;29;20053;-66
2022/12/10 00:03:22;;;;;;;29.25;15.00;;;-1.10;99.90;;;;;;4863143;29;20059;-66
2022/12/10 00:05:48;;;;;;;24.60;14.32;;;-1.10;99.90;;;;;;4863472;29;20065;-67
2022/12/10 00:08:15;;;;;;;21.08;14.02;;;-1.10;99.90;;;;;;4863465;29;20539;-67
2022/12/10 00:10:42;;;;;;;25.35;13.73;;;-1.10;99.90;;;;;;4861914;29;20068;-66
2022/12/10 00:13:09;;;;;;;23.13;13.43;;;-1.10;99.90;;;;;;4863322;29;20056;-66
2022/12/10 00:15:35;;;;;;;30.35;14.27;;;-1.10;99.90;;;;;;4863338;29;20057;-66
2022/12/10 00:18:02;;;;;;;28.02;15.20;;;-1.10;99.90;;;;;;4863313;29;20116;-65
2022/12/10 00:20:29;;;;;;;27.77;16.17;;;-1.10;99.90;;;;;;4863105;29;20054;-66
2022/12/10 00:22:56;;;;;;;26.42;15.48;;;-1.20;99.90;;;;;;4863485;29;20088;-66
2022/12/10 00:25:22;;;;;;;20.55;13.65;;;-1.20;99.90;;;;;;4863043;29;20125;-65
2022/12/10 00:27:49;;;;;;;24.73;13.55;;;-1.20;99.90;;;;;;4862996;29;20103;-65
2022/12/10 00:30:16;;;;;;;26.10;13.85;;;-1.20;99.90;;;;;;4861724;29;20038;-67
2022/12/10 00:32:43;;;;;;;22.65;12.68;;;-1.20;99.90;;;;;;4861757;29;20463;-66
2022/12/10 00:35:10;;;;;;;28.80;13.80;;;-1.20;99.90;;;;;;4845718;29;20095;-67
2022/12/10 00:37:36;;;;;;;25.23;13.20;;;-1.20;99.90;;;;;;4848170;29;20034;-69
2022/12/10 00:40:04;;;;;;;27.23;12.68;;;-1.20;99.90;;;;;;4858318;29;20054;-65
2022/12/10 00:42:32;;;;;;;24.77;13.20;;;-1.20;99.90;;;;;;4849098;29;20109;-66
2022/12/10 00:44:59;;;;;;;21.50;13.00;;;-1.10;99.90;;;;;;4842893;29;20050;-65
2022/12/10 00:47:26;;;;;;;21.27;12.82;;;-1.20;99.90;;;;;;4844528;29;20106;-65
2022/12/10 00:49:53;;;;;;;27.77;12.90;;;-1.10;99.90;;;;;;4843927;29;20054;-65
2022/12/10 00:52:19;;;;;;;25.58;13.18;;;-1.10;99.90;;;;;;4844085;29;20046;-65
2022/12/10 00:54:46;;;;;;;22.65;13.25;;;-1.10;99.90;;;;;;4847363;29;20510;-65
2022/12/10 00:57:13;;;;;;;25.83;13.20;;;-1.20;99.90;;;;;;4862717;29;20042;-66
2022/12/10 00:59:40;;;;;;;23.80;12.93;;;-1.10;99.90;;;;;;4861042;29;20592;-65
2022/12/10 01:02:07;;;;;;;21.00;12.43;;;-1.10;99.90;;;;;;4862289;29;20042;-65
2022/12/10 01:04:34;;;;;;;22.33;12.85;;;-1.10;99.90;;;;;;4876004;29;20053;-66
2022/12/10 01:07:01;;;;;;;20.40;12.48;;;-1.10;99.90;;;;;;4862047;29;20550;-65
2022/12/10 01:09:35;;;;;;;25.75;12.25;;;-1.20;99.90;;;;;;4861101;29;20432;-66
2022/12/10 01:12:01;;;;;;;22.52;12.88;;;-1.20;99.90;;;;;;4862053;29;20011;-66
2022/12/10 01:14:28;;;;;;;19.63;11.40;;;-1.20;99.90;;;;;;4859982;29;20052;-65
2022/12/10 01:16:55;;;;;;;22.10;13.05;;;-1.20;99.90;;;;;;4860643;29;20049;-66
2022/12/10 01:19:22;;;;;;;20.95;11.40;;;-1.20;99.90;;;;;;4857641;29;20088;-66
2022/12/10 01:21:49;;;;;;;20.60;11.80;;;-1.20;99.90;;;;;;4861062;29;20077;-65
2022/12/10 01:24:15;;;;;;;23.15;12.65;;;-1.20;99.90;;;;;;4860874;29;20037;-65
2022/12/10 01:26:43;;;;;;;22.05;10.95;;;-1.20;99.90;;;;;;4860163;29;20129;-65
2022/12/10 01:29:10;;;;;;;19.80;11.02;;;-1.20;99.90;;;;;;4861678;29;20486;-65
2022/12/10 01:31:39;;;;;;;26.63;12.60;;;-1.20;99.90;;;;;;4860379;29;20046;-65
2022/12/10 01:34:06;;;;;;;19.92;11.13;;;-1.30;99.90;;;;;;4855351;29;20406;-65
2022/12/10 01:36:32;;;;;;;22.55;12.07;;;-1.30;99.90;;;;;;4850851;29;20088;-63
2022/12/10 01:38:59;;;;;;;17.98;11.25;;;-1.30;99.90;;;;;;4850942;29;20041;-64
2022/12/10 01:41:28;;;;;;;24.42;11.40;;;-1.40;99.90;;;;;;4860247;29;20046;-65
2022/12/10 01:43:55;;;;;;;15.00;10.35;;;-1.40;99.90;;;;;;4875581;29;20062;-65
2022/12/10 01:46:23;;;;;;;23.67;10.63;;;-1.40;99.90;;;;;;4858854;29;20057;-65
2022/12/10 01:48:50;;;;;;;22.30;11.55;;;-1.40;99.90;;;;;;4860370;29;20045;-65
2022/12/10 01:51:16;;;;;;;18.45;11.00;;;-1.40;99.90;;;;;;4845649;29;20053;-64
2022/12/10 01:53:43;;;;;;;20.73;11.70;;;-1.40;99.90;;;;;;4843735;29;20038;-64
2022/12/10 01:56:10;;;;;;;24.30;11.77;;;-1.40;99.90;;;;;;4841474;29;20074;-65
2022/12/10 01:58:37;;;;;;;23.15;12.13;;;-1.50;99.90;;;;;;4841210;29;20054;-65
2022/12/10 02:01:04;;;;;;;19.92;12.68;;;-1.50;99.90;;;;;;4841175;29;20062;-64
2022/12/10 02:03:33;;;;;;;20.92;12.38;;;-1.50;99.90;;;;;;4840986;29;20049;-66
2022/12/10 02:06:00;;;;;;;19.33;12.48;;;-1.60;99.90;;;;;;4847056;29;20057;-65
2022/12/10 02:08:26;;;;;;;23.35;12.65;;;-1.60;99.90;;;;;;4853553;29;20126;-65
2022/12/10 02:10:53;;;;;;;18.33;12.30;;;-1.60;99.90;;;;;;4841600;29;20050;-64
2022/12/10 02:13:20;;;;;;;18.15;11.70;;;-1.60;99.90;;;;;;4841287;29;20042;-65
2022/12/10 02:15:47;;;;;;;24.60;12.30;;;-1.60;99.90;;;;;;4840844;29;20550;-64
2022/12/10 02:18:13;;;;;;;17.75;11.90;;;-1.70;99.90;;;;;;4841516;29;20050;-65
2022/12/10 02:20:40;;;;;;;22.55;12.95;;;-1.70;99.90;;;;;;4841575;29;20050;-64
2022/12/10 02:23:08;;;;;;;23.95;13.57;;;-1.70;99.90;;;;;;4841690;29;20060;-64
2022/12/10 02:25:35;;;;;;;24.52;13.77;;;-1.70;99.90;;;;;;4852192;29;20057;-63
2022/12/10 02:28:02;;;;;;;27.30;14.25;;;-1.70;99.90;;;;;;4860558;29;20050;-64
2022/12/10 02:30:29;;;;;;;21.58;13.43;;;-1.70;99.90;;;;;;4859522;29;20133;-64
2022/12/10 02:32:56;;;;;;;22.80;13.63;;;-1.70;99.90;;;;;;4859282;29;20510;-64
2022/12/10 02:35:23;;;;;;;22.92;13.52;;;-1.70;99.90;;;;;;4860638;29;20042;-64
2022/12/10 02:37:50;;;;;;;24.92;14.48;;;-1.80;99.90;;;;;;4857378;29;20045;-64
2022/12/10 02:40:17;;;;;;;23.35;13.63;;;-1.80;99.90;;;;;;4840929;29;20066;-64
2022/12/10 02:42:47;;;;;;;23.05;13.40;;;-1.80;99.90;;;;;;4841056;29;20050;-64
2022/12/10 02:45:14;;;;;;;26.80;14.57;;;-1.80;99.90;;;;;;4840726;29;20494;-64
2022/12/10 02:47:41;;;;;;;19.55;13.85;;;-1.90;99.90;;;;;;4858647;29;20510;-64
2022/12/10 02:50:08;;;;;;;21.90;13.02;;;-1.90;99.90;;;;;;4859478;29;20080;-64
2022/12/10 02:52:35;;;;;;;25.55;14.85;;;-1.90;99.90;;;;;;4860914;29;20048;-63
2022/12/10 02:55:02;;;;;;;24.33;13.00;;;-1.90;99.90;;;;;;4856945;29;20065;-64
2022/12/10 02:57:31;;;;;;;25.70;13.65;;;-1.90;99.90;;;;;;4859536;29;20501;-65
2022/12/10 02:59:58;;;;;;;25.27;13.95;;;-2.00;99.90;;;;;;4859911;29;20057;-64
2022/12/10 03:02:27;;;;;;;23.25;14.52;;;-2.00;99.90;;;;;;4859718;29;20417;-63
2022/12/10 03:04:54;;;;;;;20.92;11.70;;;-2.00;99.90;;;;;;4859206;29;20156;-63
2022/12/10 03:07:20;;;;;;;22.27;12.70;;;-1.90;99.90;;;;;;4859569;29;20088;-64
2022/12/10 03:09:47;;;;;;;18.90;11.85;;;-2.00;99.90;;;;;;4859611;29;20435;-63
2022/12/10 03:12:14;;;;;;;23.15;13.32;;;-2.00;99.90;;;;;;4859624;29;20037;-63
2022/12/10 03:14:40;;;;;;;22.45;13.05;;;-2.00;99.90;;;;;;4859191;29;20076;-64
2022/12/10 03:17:07;;;;;;;26.00;13.13;;;-2.00;99.90;;;;;;4858154;29;20073;-63
2022/12/10 03:19:34;;;;;;;21.63;12.68;;;-2.00;99.90;;;;;;4843065;29;20054;-64
2022/12/10 03:22:01;;;;;;;19.98;12.77;;;-2.00;99.90;;;;;;4840619;29;20054;-64
2022/12/10 03:24:27;;;;;;;22.48;12.63;;;-2.00;99.90;;;;;;4842037;29;20411;-64
2022/12/10 03:26:54;;;;;;;18.13;11.88;;;-2.00;99.90;;;;;;4845509;29;20208;-64
2022/12/10 03:29:21;;;;;;;20.98;12.15;;;-2.00;99.90;;;;;;4844232;29;20447;-64
2022/12/10 03:31:48;;;;;;;19.08;12.23;;;-2.10;99.90;;;;;;4845224;29;20069;-63
2022/12/10 03:34:14;;;;;;;19.77;12.02;;;-2.10;99.90;;;;;;4845072;29;20113;-64
2022/12/10 03:36:41;;;;;;;23.33;13.40;;;-2.10;99.90;;;;;;4845047;29;20052;-64
2022/12/10 03:39:08;;;;;;;18.73;12.07;;;-2.10;99.90;;;;;;4851556;29;20066;-65
2022/12/10 03:41:35;;;;;;;21.63;11.60;;;-2.10;99.90;;;;;;4860218;29;20057;-64
2022/12/10 03:44:01;;;;;;;26.92;12.93;;;-2.10;99.90;;;;;;4863509;29;20132;-64
2022/12/10 03:46:29;;;;;;;22.02;12.40;;;-2.00;99.90;;;;;;4863184;29;20045;-65
2022/12/10 03:48:55;;;;;;;23.13;12.65;;;-2.00;99.90;;;;;;4860325;29;20519;-64
2022/12/10 03:51:22;;;;;;;22.48;13.63;;;-2.00;99.90;;;;;;4875544;29;20049;-64
2022/12/10 03:53:49;;;;;;;21.60;12.55;;;-2.00;99.90;;;;;;4863346;29;20057;-64
2022/12/10 03:56:16;;;;;;;22.98;12.73;;;-2.10;99.90;;;;;;4863422;29;20252;-64
2022/12/10 03:58:42;;;;;;;23.05;13.50;;;-2.10;99.90;;;;;;4859791;29;20470;-64
2022/12/10 04:01:09;;;;;;;21.38;11.40;;;-2.10;99.90;;;;;;4843991;29;20110;-63
2022/12/10 04:03:36;;;;;;;20.40;13.25;;;-2.10;99.90;;;;;;4854761;29;20136;-64
2022/12/10 04:06:03;;;;;;;21.15;13.00;;;-2.10;99.90;;;;;;4860811;29;20054;-63
2022/12/10 04:08:30;;;;;;;24.67;13.30;;;-2.10;99.90;;;;;;4861306;29;20457;-64
2022/12/10 04:10:56;;;;;;;24.27;12.75;;;-2.10;99.90;;;;;;4861388;29;20050;-63
2022/12/10 04:16:28;;;;;;;21.57;12.40;;;-2.20;99.90;;;;;;4841074;29;20150;-65
2022/12/10 04:18:55;;;;;;;;;;;-2.20;99.90;;;;;;4846511;29;20618;-63
2022/12/10 04:26:57;;;;;;;19.90;11.93;;;-2.30;99.90;;;;;;4843893;29;20054;-64
2022/12/10 04:29:24;;;;;;;19.67;11.75;;;-2.30;99.90;;;;;;4857594;29;20049;-64
2022/12/10 04:31:51;;;;;;;20.35;12.57;;;-2.20;99.90;;;;;;4861865;29;20098;-64
2022/12/10 04:34:17;;;;;;;20.90;12.25;;;-2.20;99.90;;;;;;4861448;29;20332;-63
2022/12/10 04:36:44;;;;;;;20.90;12.90;;;-2.30;99.90;;;;;;4861857;29;20470;-64
2022/12/10 04:39:11;;;;;;;20.42;13.00;;;-2.30;99.90;;;;;;4848687;29;20065;-63
2022/12/10 04:41:38;;;;;;;19.63;11.77;;;-2.30;99.90;;;;;;4859454;29;20176;-64
2022/12/10 04:44:05;;;;;;;21.67;12.70;;;-2.30;99.90;;;;;;4860973;29;20128;-64
2022/12/10 04:46:31;;;;;;;25.08;14.18;;;-2.20;99.90;;;;;;4861111;29;20351;-64
2022/12/10 04:48:58;;;;;;;20.35;12.55;;;-2.20;99.90;;;;;;4849635;29;20054;-64
2022/12/10 04:51:25;;;;;;;22.65;12.32;;;-2.30;99.90;;;;;;4858249;29;20037;-65
2022/12/10 04:53:52;;;;;;;21.38;12.25;;;-2.30;99.90;;;;;;4860446;29;20079;-64
2022/12/10 04:56:20;;;;;;;21.30;13.00;;;-2.30;99.90;;;;;;4847924;29;20343;-65
2022/12/10 04:58:46;;;;;;;22.95;11.88;;;-2.30;99.90;;;;;;4843735;29;20049;-65
2022/12/10 05:01:13;;;;;;;19.88;11.55;;;-2.40;99.90;;;;;;4843325;29;20046;-64
2022/12/10 05:03:40;;;;;;;18.40;11.88;;;-2.30;99.90;;;;;;4853589;29;20210;-64
2022/12/10 05:06:07;;;;;;;23.77;12.73;;;-2.40;99.90;;;;;;4861310;29;20056;-64
2022/12/10 05:08:34;;;;;;;18.85;11.93;;;-2.40;99.90;;;;;;4842472;29;20387;-63
2022/12/10 05:11:01;;;;;;;23.45;12.52;;;-2.40;99.90;;;;;;4860198;29;20045;-63
2022/12/10 05:13:28;;;;;;;21.08;11.65;;;-2.40;99.90;;;;;;4861627;29;20125;-64
2022/12/10 05:15:55;;;;;;;18.73;11.77;;;-2.40;99.90;;;;;;4861923;29;20049;-64
2022/12/10 05:18:22;;;;;;;19.13;11.93;;;-2.40;99.90;;;;;;4859736;29;20038;-64
2022/12/10 05:20:48;;;;;;;18.98;12.00;;;-2.40;99.90;;;;;;4858984;29;20165;-64
2022/12/10 05:23:27;;;;;;;20.17;11.30;;;-2.40;99.90;;;;;;4861464;29;20046;-64
2022/12/10 05:25:54;;;;;;;17.95;12.07;;;-2.40;99.90;;;;;;4861892;29;20128;-64
2022/12/10 05:28:21;;;;;;;15.93;11.30;;;-2.50;99.90;;;;;;4862034;29;20107;-63
2022/12/10 05:30:47;;;;;;;21.55;11.75;;;-2.50;99.90;;;;;;4860471;29;20124;-63
2022/12/10 05:33:14;;;;;;;20.05;12.80;;;-2.50;99.90;;;;;;4844082;29;20129;-64
2022/12/10 05:35:41;;;;;;;19.38;11.25;;;-2.50;99.90;;;;;;4848289;29;20483;-63
2022/12/10 05:38:08;;;;;;;18.25;11.50;;;-2.50;99.90;;;;;;4853511;29;20049;-64
2022/12/10 05:40:35;;;;;;;20.35;12.18;;;-2.50;99.90;;;;;;4860252;29;20487;-64
2022/12/10 05:43:01;;;;;;;22.13;12.57;;;-2.50;99.90;;;;;;4861376;29;20050;-64
2022/12/10 05:45:28;;;;;;;22.52;12.85;;;-2.40;99.90;;;;;;4854012;29;20458;-63
2022/12/10 05:47:55;;;;;;;21.10;12.38;;;-2.40;99.90;;;;;;4841590;29;20407;-64
2022/12/10 05:50:21;;;;;;;19.95;12.07;;;-2.50;99.90;;;;;;4842679;29;20073;-64
2022/12/10 05:52:48;;;;;;;17.85;11.48;;;-2.40;99.90;;;;;;4843347;29;20071;-63
2022/12/10 05:55:15;;;;;;;19.92;12.32;;;-2.40;99.90;;;;;;4843296;29;20390;-64
2022/12/10 05:57:42;;;;;;;20.15;12.32;;;-2.40;99.90;;;;;;4843972;29;20128;-63
2022/12/10 06:00:08;;;;;;;22.27;13.10;;;-2.40;99.90;;;;;;4857901;29;20363;-63
2022/12/10 06:02:38;;;;;;;23.17;13.18;;;-2.40;99.90;;;;;;4844367;29;20045;-63
2022/12/10 06:05:05;;;;;;;19.13;11.65;;;-2.40;99.90;;;;;;4843559;29;20062;-63
2022/12/10 06:07:32;;;;;;;19.85;11.75;;;-2.50;99.90;;;;;;4850744;29;20497;-63
2022/12/10 06:09:59;;;;;;;22.90;12.85;;;-2.50;99.90;;;;;;4861111;29;20487;-63
2022/12/10 06:12:25;;;;;;;21.73;12.85;;;-2.50;99.90;;;;;;4861171;29;20060;-64
2022/12/10 06:14:52;;;;;;;23.02;12.57;;;-2.50;99.90;;;;;;4850158;29;20050;-64
2022/12/10 06:17:19;;;;;;;21.40;12.45;;;-2.50;99.90;;;;;;4860667;29;20144;-62
2022/12/10 06:19:45;;;;;;;21.92;12.63;;;-2.50;99.90;;;;;;4851040;29;20065;-64
2022/12/10 06:22:12;;;;;;;24.13;14.20;;;-2.50;99.90;;;;;;4842535;29;20050;-64
2022/12/10 06:24:39;;;;;;;21.70;11.90;;;-2.50;99.90;;;;;;4843055;29;20081;-64
2022/12/10 06:27:05;;;;;;;22.42;14.20;;;-2.50;99.90;;;;;;4846781;29;20065;-64
2022/12/10 06:29:32;;;;;;;20.40;12.30;;;-2.50;99.90;;;;;;4860896;29;20566;-64
2022/12/10 06:31:59;;;;;;;18.70;12.18;;;-2.50;99.90;;;;;;4860415;29;20442;-64
2022/12/10 06:34:25;;;;;;;24.25;13.77;;;-2.50;99.90;;;;;;4856724;29;20078;-63
2022/12/10 06:36:52;;;;;;;20.67;13.70;;;-2.60;99.90;;;;;;4852375;29;20086;-63
2022/12/10 06:39:19;;;;;;;21.60;12.32;;;-2.60;99.90;;;;;;4860865;29;20121;-63
2022/12/10 06:41:46;;;;;;;23.08;13.55;;;-2.60;99.90;;;;;;4860992;29;20049;-64
2022/12/10 06:44:12;;;;;;;19.73;12.70;;;-2.60;99.90;;;;;;4845934;29;20459;-63
2022/12/10 06:46:39;;;;;;;21.30;12.10;;;-2.60;99.90;;;;;;4850386;29;20065;-64
2022/12/10 06:49:06;;;;;;;17.35;12.63;;;-2.60;99.90;;;;;;4856631;29;20042;-64
2022/12/10 06:51:32;;;;;;;22.65;12.93;;;-2.60;99.90;;;;;;4842468;29;20045;-63
2022/12/10 06:53:59;;;;;;;22.05;13.73;;;-2.60;99.90;;;;;;4841956;29;20042;-63
2022/12/10 06:56:26;;;;;;;20.02;12.93;;;-2.60;99.90;;;;;;4842092;29;20125;-64
2022/12/10 06:58:53;;;;;;;25.35;13.75;;;-2.70;99.90;;;;;;4843200;29;20498;-63
2022/12/10 07:01:20;;;;;;;24.17;12.50;;;-2.60;99.90;;;;;;4847474;29;20090;-64
2022/12/10 07:03:47;;;;;;;21.45;13.65;;;-2.70;99.90;;;;;;4845673;29;20335;-63
2022/12/10 07:06:13;;;;;;;24.08;12.95;;;-2.60;99.90;;;;;;4848897;29;20494;-63
2022/12/10 07:08:40;;;;;;;21.25;13.63;;;-2.60;99.90;;;;;;4856383;29;20090;-63
2022/12/10 07:11:07;;;;;;;20.05;13.30;;;-2.60;99.90;;;;;;4863432;29;20094;-63
2022/12/10 07:13:33;;;;;;;20.67;13.55;;;-2.60;99.90;;;;;;4860709;29;20125;-63
2022/12/10 07:16:00;;;;;;;19.45;12.18;;;-2.60;99.90;;;;;;4862841;29;20060;-63
2022/12/10 07:18:27;;;;;;;19.85;12.32;;;-2.70;99.90;;;;;;4861700;29;20129;-63
2022/12/10 07:20:54;;;;;;;21.58;12.23;;;-2.60;99.90;;;;;;4851551;29;20099;-63
2022/12/10 07:23:20;;;;;;;18.05;11.75;;;-2.70;99.90;;;;;;4853477;29;20130;-63
2022/12/10 07:25:47;;;;;;;19.38;11.93;;;-2.70;99.90;;;;;;4861413;29;20094;-64
2022/12/10 07:28:14;;;;;;;21.27;12.57;;;-2.70;99.90;;;;;;4850567;29;20629;-63
2022/12/10 07:30:40;;;;;;;19.05;12.20;;;-2.70;99.90;;;;;;4857527;29;20045;-62
2022/12/10 07:33:07;;;;;;;17.42;11.85;;;-2.70;99.90;;;;;;4863236;29;20528;-64
2022/12/10 07:35:34;;;;;;;23.88;11.35;;;-2.80;99.90;;;;;;4861278;29;20476;-63
2022/12/10 07:38:01;;;;;;;25.88;12.05;;;-2.80;99.90;;;;;;4859751;29;20152;-64
2022/12/10 07:40:27;;;;;;;18.42;11.88;;;-2.80;99.90;;;;;;4855361;29;20094;-64
2022/12/10 07:42:54;;;;;;;18.08;11.90;;;-2.70;99.90;;;;;;4850397;29;20046;-64
2022/12/10 07:45:21;;;;;;;20.48;12.73;;;-2.70;99.90;;;;;;4863162;29;20084;-64
2022/12/10 07:47:48;;;;;;;21.33;13.13;;;-2.70;99.90;;;;;;4861378;29;20049;-64
2022/12/10 07:50:14;;;;;;;24.27;14.05;;;-2.70;99.90;;;;;;4853525;29;20096;-64
2022/12/10 07:52:41;;;;;;;21.58;13.88;;;-2.70;99.90;;;;;;4854481;29;20041;-64
2022/12/10 07:55:08;;;;;;;23.10;13.27;;;-2.70;99.90;;;;;;4853373;29;20087;-63
2022/12/10 07:57:35;;;;;;;19.40;13.27;;;-2.70;99.90;;;;;;4853999;29;20386;-64
2022/12/10 08:00:01;;;;;;;22.30;13.27;;;-2.70;99.90;;;;;;4844790;29;20130;-64
2022/12/10 08:02:37;;;;;;;21.88;12.70;;;-2.70;99.90;;;;;;4849928;29;20112;-64
2022/12/10 08:05:04;;;;;;;22.02;13.57;;;-2.70;99.90;;;;;;4847507;29;20503;-64
2022/12/10 08:07:30;;;;;;;26.30;13.82;;;-2.70;99.90;;;;;;4861129;29;20106;-64
2022/12/10 08:09:57;;;;;;;24.27;14.43;;;-2.60;99.90;;;;;;4846648;29;20057;-64
2022/12/10 08:12:24;;;;;;;23.60;14.68;;;-2.70;99.90;;;;;;4844305;29;20129;-64
2022/12/10 08:14:51;;;;;;;25.92;14.20;;;-2.70;99.90;;;;;;4851432;29;20554;-64
2022/12/10 08:17:17;;;;;;;26.17;15.07;;;-2.70;99.90;;;;;;4854723;29;20101;-64
2022/12/10 08:19:44;;;;;;;21.02;13.85;;;-2.60;99.90;;;;;;4841788;29;20061;-64
2022/12/10 08:22:11;;;;;;;21.13;14.00;;;-2.60;99.90;;;;;;4859832;29;20056;-64
2022/12/10 08:24:38;;;;;;;20.88;13.20;;;-2.60;99.90;;;;;;4856005;29;20053;-65
2022/12/10 08:27:04;;;;;;;23.75;13.60;;;-2.60;99.90;;;;;;4857350;29;20070;-63
2022/12/10 08:29:31;;;;;;;22.15;13.82;;;-2.60;99.90;;;;;;4859777;29;20128;-65
2022/12/10 08:31:58;;;;;;;28.80;14.68;;;-2.60;99.90;;;;;;4854979;29;20038;-64
2022/12/10 08:34:25;;;;;;;28.55;17.23;;;-2.60;99.90;;;;;;4855278;29;20404;-63
2022/12/10 08:36:52;;;;;;;22.65;14.52;;;-2.60;99.90;;;;;;4847367;29;20046;-64
2022/12/10 08:39:18;;;;;;;21.02;12.98;;;-2.60;99.90;;;;;;4844999;29;20045;-64
2022/12/10 08:41:45;;;;;;;21.17;13.40;;;-2.60;99.90;;;;;;4854349;29;20037;-63
2022/12/10 08:44:12;;;;;;;21.77;14.88;;;-2.60;99.90;;;;;;4851496;29;20189;-63
2022/12/10 08:46:39;;;;;;;21.20;13.02;;;-2.50;99.90;;;;;;4851336;29;20517;-63
2022/12/10 08:49:09;;;;;;;22.35;14.85;;;-2.50;99.90;;;;;;4849493;29;20042;-64
2022/12/10 08:51:36;;;;;;;23.60;14.65;;;-2.40;99.90;;;;;;4859399;29;20096;-62
2022/12/10 08:54:02;;;;;;;20.58;12.63;;;-2.50;99.90;;;;;;4860962;29;20125;-63
2022/12/10 08:56:29;;;;;;;23.90;14.57;;;-2.40;99.90;;;;;;4851524;29;20058;-63
2022/12/10 08:58:56;;;;;;;22.95;15.90;;;-2.40;99.90;;;;;;4846218;29;20038;-63
2022/12/10 09:01:23;;;;;;;28.80;16.05;;;-2.30;99.90;;;;;;4844042;29;20045;-63
2022/12/10 09:03:50;;;;;;;23.52;16.30;;;-2.30;99.90;;;;;;4852658;29;20486;-63
2022/12/10 09:06:16;;;;;;;24.27;15.75;;;-2.20;99.90;;;;;;4861500;29;20049;-63
2022/12/10 09:08:43;;;;;;;30.67;16.83;;;-2.20;99.90;;;;;;4860041;29;20049;-63
2022/12/10 09:11:10;;;;;;;27.73;16.17;;;-2.20;99.90;;;;;;4832394;29;20049;-63
2022/12/10 09:13:37;;;;;;;30.90;17.75;;;-2.20;99.90;;;;;;4851624;29;20116;-64
2022/12/10 09:16:03;;;;;;;23.75;16.83;;;-2.10;99.90;;;;;;4845059;29;20052;-64
2022/12/10 09:18:30;;;;;;;27.50;15.93;;;-2.10;99.90;;;;;;4845796;29;20498;-64
2022/12/10 09:20:57;;;;;;;24.73;15.25;;;-2.00;99.90;;;;;;4853162;29;20481;-63
2022/12/10 09:23:24;;;;;;;23.50;14.50;;;-2.00;99.90;;;;;;4851718;29;20043;-64
2022/12/10 09:25:50;;;;;;;23.10;15.30;;;-2.00;99.90;;;;;;4846223;29;20106;-63
2022/12/10 09:28:17;;;;;;;30.35;16.55;;;-1.90;99.90;;;;;;4841628;29;20054;-64
2022/12/10 09:30:44;;;;;;;22.60;16.10;;;-1.90;99.90;;;;;;4857213;29;20485;-65
2022/12/10 09:33:11;;;;;;;24.10;15.65;;;-1.90;99.90;;;;;;4858697;29;20053;-65
2022/12/10 09:35:38;;;;;;;24.52;15.85;;;-1.80;99.90;;;;;;4861095;29;20101;-64
2022/12/10 09:38:05;;;;;;;27.20;16.00;;;-1.70;99.90;;;;;;4861146;29;20056;-64
2022/12/10 09:40:32;;;;;;;25.83;16.70;;;-1.70;99.90;;;;;;4861061;29;20056;-64
2022/12/10 09:42:59;;;;;;;28.88;16.92;;;-1.60;99.90;;;;;;4861733;29;20049;-63
2022/12/10 09:45:25;;;;;;;23.58;16.35;;;-1.50;99.90;;;;;;4861220;29;20097;-64
2022/12/10 09:47:52;;;;;;;24.45;16.52;;;-1.30;99.90;;;;;;4861164;29;20077;-63
2022/12/10 09:50:19;;;;;;;24.33;16.55;;;-1.20;99.90;;;;;;4860193;29;20557;-64
2022/12/10 09:52:47;;;;;;;24.05;15.52;;;-1.10;99.90;;;;;;4861117;29;20037;-62
2022/12/10 09:55:14;;;;;;;23.83;16.42;;;-1.00;99.90;;;;;;4861267;29;20098;-63
2022/12/10 09:57:40;;;;;;;21.55;14.95;;;-0.90;99.90;;;;;;4861360;29;20098;-63
2022/12/10 10:00:07;;;;;;;22.83;16.88;;;-0.70;99.90;;;;;;4861230;29;20117;-64
2022/12/10 10:02:37;;;;;;;21.48;15.70;;;-0.60;99.90;;;;;;4861044;29;20209;-64
2022/12/10 10:05:04;;;;;;;18.73;13.23;;;-0.50;99.90;;;;;;4860825;29;20057;-63
2022/12/10 10:07:31;;;;;;;19.38;13.65;;;-0.50;99.90;;;;;;4860889;29;20450;-63
2022/12/10 10:09:58;;;;;;;20.02;13.43;;;-0.50;99.90;;;;;;4860733;29;20123;-64
2022/12/10 10:12:24;;;;;;;16.20;11.27;;;-0.50;99.90;;;;;;4860999;29;20121;-63
2022/12/10 10:14:51;;;;;;;17.13;10.35;;;-0.40;99.90;;;;;;4859349;29;20074;-64
2022/12/10 10:17:18;;;;;;;14.00;10.32;;;-0.40;99.90;;;;;;4861039;29;20120;-63
2022/12/10 10:19:45;;;;;;;14.95;10.73;;;-0.30;99.90;;;;;;4861069;29;20049;-66
2022/12/10 10:22:11;;;;;;;13.05;9.75;;;-0.30;99.90;;;;;;4860802;29;20072;-64
2022/12/10 10:24:38;;;;;;;19.65;10.52;;;-0.20;99.90;;;;;;4861038;29;20056;-64
2022/12/10 10:27:05;;;;;;;20.73;11.57;;;-0.10;99.90;;;;;;4860718;29;20474;-63
2022/12/10 10:29:32;;;;;;;16.23;10.65;;;-0.10;99.90;;;;;;4858882;29;20401;-65
2022/12/10 10:31:59;;;;;;;13.48;9.35;;;0.00;99.90;;;;;;4858413;29;20058;-63
2022/12/10 10:34:25;;;;;;;14.35;8.80;;;0.00;99.90;;;;;;4860166;29;20104;-64
2022/12/10 10:36:52;;;;;;;13.63;9.23;;;0.00;99.90;;;;;;4866052;29;20065;-64
2022/12/10 10:39:19;;;;;;;15.68;9.35;;;0.10;99.90;;;;;;4865214;29;20050;-63
2022/12/10 10:41:46;;;;;;;14.48;8.68;;;0.10;99.90;;;;;;4865445;29;20459;-63
2022/12/10 10:44:12;;;;;;;15.52;8.68;;;0.20;99.90;;;;;;4866745;29;20106;-63
2022/12/10 10:46:39;;;;;;;11.23;8.80;;;0.20;99.90;;;;;;4866639;29;20053;-63
2022/12/10 10:49:06;;;;;;;13.27;8.10;;;0.30;99.90;;;;;;4866128;29;20478;-64
2022/12/10 10:51:33;;;;;;;12.23;7.80;;;0.40;99.90;;;;;;4866236;29;20162;-64
2022/12/10 10:53:59;;;;;;;15.25;8.48;;;0.40;99.90;;;;;;4866057;29;20049;-65
2022/12/10 10:56:31;;;;;;;14.38;7.85;;;0.50;99.90;;;;;;4865844;29;20056;-63
2022/12/10 10:58:58;;;;;;;13.70;8.75;;;0.60;99.90;;;;;;4866655;29;20470;-64
2022/12/10 11:01:24;;;;;;;14.52;8.00;;;0.60;99.90;;;;;;4866001;29;20125;-63
2022/12/10 11:03:51;;;;;;;13.63;8.05;;;0.70;99.90;;;;;;4865707;29;20045;-63
2022/12/10 11:06:18;;;;;;;13.93;7.45;;;0.80;99.90;;;;;;4865362;29;20086;-62
2022/12/10 11:08:45;;;;;;;11.07;6.43;;;0.80;99.90;;;;;;4866674;29;20133;-64
2022/12/10 11:11:11;;;;;;;14.85;6.75;;;0.90;99.90;;;;;;4866157;29;20073;-62
2022/12/10 11:13:38;;;;;;;9.32;6.78;;;0.90;99.90;;;;;;4866826;29;20051;-63
2022/12/10 11:16:06;;;;;;;13.63;7.55;;;1.00;99.90;;;;;;4866428;29;20045;-64
2022/12/10 11:18:33;;;;;;;12.00;7.43;;;1.00;99.90;;;;;;4865565;29;20116;-64
2022/12/10 11:20:59;;;;;;;10.13;6.40;;;1.00;99.90;;;;;;4864366;29;20076;-64
2022/12/10 11:23:26;;;;;;;9.13;6.25;;;1.00;99.90;;;;;;4864920;29;20049;-63
2022/12/10 11:25:53;;;;;;;12.63;6.97;;;1.10;99.90;;;;;;4866333;29;20081;-62
2022/12/10 11:28:20;;;;;;;12.73;7.28;;;1.10;99.90;;;;;;4866218;29;20049;-63
2022/12/10 11:30:47;;;;;;;8.43;5.97;;;1.20;99.90;;;;;;4864352;29;20106;-64
2022/12/10 11:33:13;;;;;;;11.20;6.30;;;1.20;99.90;;;;;;4865072;29;20463;-65
2022/12/10 11:35:40;;;;;;;10.02;5.93;;;1.20;99.90;;;;;;4866206;29;20132;-64
2022/12/10 11:38:07;;;;;;;9.35;5.82;;;1.30;99.90;;;;;;4866203;29;20042;-63
2022/12/10 11:40:34;;;;;;;10.32;5.78;;;1.30;99.90;;;;;;4866635;29;20073;-63
2022/12/10 11:43:00;;;;;;;8.60;6.13;;;1.30;99.90;;;;;;4866268;29;20045;-64
2022/12/10 11:45:27;;;;;;;10.60;6.00;;;1.30;99.90;;;;;;4866304;29;20049;-64
2022/12/10 11:47:54;;;;;;;9.57;6.10;;;1.30;99.90;;;;;;4861335;29;20714;-63
2022/12/10 11:50:21;;;;;;;9.32;5.68;;;1.40;99.90;;;;;;4862792;29;20050;-64
2022/12/10 11:52:48;;;;;;;8.70;5.90;;;1.40;99.90;;;;;;4859775;29;20232;-63
2022/12/10 11:55:14;;;;;;;9.52;5.60;;;1.40;99.90;;;;;;4846280;29;20069;-65
2022/12/10 11:57:41;;;;;;;6.50;5.10;;;1.50;99.90;;;;;;4844121;29;20050;-63
2022/12/10 12:00:08;;;;;;;9.50;5.10;;;1.60;99.90;;;;;;4842657;29;20050;-64
2022/12/10 12:02:35;;;;;;;7.38;4.57;;;1.60;99.90;;;;;;4844359;29;20455;-64
2022/12/10 12:05:02;;;;;;;9.35;5.13;;;1.60;99.90;;;;;;4844355;29;20073;-63
2022/12/10 12:07:28;;;;;;;8.95;4.97;;;1.70;99.90;;;;;;4842983;29;20125;-63
2022/12/10 12:09:55;;;;;;;7.22;4.40;;;1.70;99.90;;;;;;4844164;29;20042;-63
2022/12/10 12:12:22;;;;;;;6.03;3.97;;;1.80;99.90;;;;;;4844986;29;20046;-65
2022/12/10 12:14:49;;;;;;;9.20;4.50;;;1.80;99.90;;;;;;4844225;29;20046;-64
2022/12/10 12:17:15;;;;;;;7.20;4.00;;;1.90;99.90;;;;;;4844297;29;20046;-63
2022/12/10 12:19:42;;;;;;;9.07;4.13;;;1.90;99.90;;;;;;4844736;29;20486;-63
2022/12/10 12:22:09;;;;;;;5.28;3.58;;;2.00;99.90;;;;;;4849173;29;20034;-64
2022/12/10 12:24:35;;;;;;;6.13;4.30;;;2.00;99.90;;;;;;4851569;29;20455;-64
2022/12/10 12:27:02;;;;;;;8.25;4.15;;;2.00;99.90;;;;;;4845801;29;20057;-64
2022/12/10 12:29:29;;;;;;;7.20;5.15;;;2.10;99.90;;;;;;4855533;29;20037;-64
2022/12/10 12:32:02;;;;;;;6.65;4.65;;;2.10;99.90;;;;;;4857164;29;20137;-63
2022/12/10 12:34:29;;;;;;;8.48;4.10;;;2.20;99.90;;;;;;4837260;29;20046;-62
2022/12/10 12:36:56;;;;;;;6.55;4.38;;;2.20;99.90;;;;;;4844655;29;20116;-64